createdAt,value
2019-05-07T00:01:19.859Z,7.71
2019-05-07T00:04:47.184Z,7.76
2019-05-07T00:08:13.089Z,7.61
2019-05-07T00:11:38.758Z,7.43
2019-05-07T00:15:06.688Z,7.32
2019-05-07T00:18:32.460Z,7.28
2019-05-07T00:22:02.384Z,7.15
2019-05-07T00:25:27.535Z,7.10
2019-05-07T00:28:53.125Z,7.09
2019-05-07T00:32:18.735Z,7.12
2019-05-07T00:35:48.857Z,7.07
2019-05-07T00:39:29.151Z,6.99
2019-05-07T00:43:14.662Z,6.94
2019-05-07T00:46:42.609Z,6.92
2019-05-07T00:50:09.928Z,6.88
2019-05-07T00:53:35.519Z,7.00
2019-05-07T00:57:03.129Z,6.97
2019-05-07T01:00:28.422Z,6.92
2019-05-07T01:03:54.006Z,6.92
2019-05-07T01:07:19.598Z,6.93
2019-05-07T01:10:45.186Z,6.92
2019-05-07T01:14:12.375Z,6.87
2019-05-07T01:17:38.149Z,6.84
2019-05-07T01:21:04.239Z,6.86
2019-05-07T01:24:32.072Z,6.90
2019-05-07T01:27:57.107Z,6.91
2019-05-07T01:31:22.717Z,6.83
2019-05-07T01:34:52.344Z,6.79
2019-05-07T01:38:19.271Z,6.64
2019-05-07T01:41:46.841Z,6.56
2019-05-07T01:45:14.598Z,6.50
2019-05-07T01:48:40.189Z,6.46
2019-05-07T01:52:05.773Z,6.44
2019-05-07T01:55:31.926Z,6.42
2019-05-07T01:58:57.550Z,6.40
2019-05-07T02:02:27.640Z,6.37
2019-05-07T02:06:10.269Z,6.34
2019-05-07T02:09:42.335Z,6.37
2019-05-07T02:13:07.368Z,6.34
2019-05-07T02:16:32.958Z,6.35
2019-05-07T02:19:58.965Z,6.32
2019-05-07T02:23:24.547Z,6.34
2019-05-07T02:26:52.033Z,6.34
2019-05-07T02:30:17.866Z,6.36
2019-05-07T02:33:43.838Z,6.36
2019-05-07T02:37:11.184Z,6.29
2019-05-07T02:40:38.766Z,6.28
2019-05-07T02:44:04.641Z,6.23
2019-05-07T02:47:33.123Z,6.24
2019-05-07T02:51:03.878Z,6.22
2019-05-07T02:54:33.524Z,6.23
2019-05-07T02:57:59.136Z,6.20
2019-05-07T03:01:24.788Z,6.20
2019-05-07T03:04:53.270Z,6.17
2019-05-07T03:08:18.062Z,6.16
2019-05-07T03:11:43.746Z,6.20
2019-05-07T03:15:09.512Z,6.22
2019-05-07T03:18:35.269Z,6.16
2019-05-07T03:22:03.755Z,6.18
2019-05-07T03:25:43.126Z,6.15
2019-05-07T03:29:13.114Z,6.17
2019-05-07T03:32:46.728Z,6.21
2019-05-07T03:36:15.910Z,6.17
2019-05-07T03:39:37.273Z,6.15
2019-05-07T03:43:06.110Z,6.18
2019-05-07T03:46:33.543Z,6.17
2019-05-07T03:49:57.898Z,6.21
2019-05-07T03:53:23.688Z,6.24
2019-05-07T03:56:49.209Z,6.19
2019-05-07T04:00:15.447Z,6.20
2019-05-07T04:03:43.980Z,6.23
2019-05-07T04:07:08.422Z,6.31
2019-05-07T04:10:34.161Z,6.30
2019-05-07T04:14:02.298Z,6.26
2019-05-07T04:17:27.427Z,6.26
2019-05-07T04:20:54.893Z,6.37
2019-05-07T04:24:25.794Z,6.44
2019-05-07T04:28:00.109Z,6.46
2019-05-07T04:31:27.329Z,6.50
2019-05-07T04:35:00.249Z,6.57
2019-05-07T04:38:25.838Z,6.65
2019-05-07T04:41:53.035Z,6.64
2019-05-07T04:45:19.016Z,6.66
2019-05-07T04:48:44.761Z,6.71
2019-05-07T04:52:15.100Z,6.66
2019-05-07T04:55:42.841Z,6.68
2019-05-07T04:59:07.391Z,6.80
2019-05-07T05:02:52.950Z,6.85
2019-05-07T05:06:18.326Z,6.93
2019-05-07T05:09:43.920Z,6.99
2019-05-07T05:13:09.499Z,7.13
2019-05-07T05:16:35.204Z,7.27
2019-05-07T05:20:04.228Z,7.31
2019-05-07T05:23:34.604Z,7.50
2019-05-07T05:27:02.455Z,7.62
2019-05-07T05:30:32.579Z,7.82
2019-05-07T05:33:57.836Z,8.04
2019-05-07T05:37:23.415Z,8.17
2019-05-07T05:40:49.004Z,8.22
2019-05-07T05:44:19.200Z,8.30
2019-05-07T05:47:44.962Z,8.38
2019-05-07T05:51:17.997Z,8.40
2019-05-07T05:54:45.221Z,8.38
2019-05-07T05:58:18.200Z,8.52
2019-05-07T06:01:52.153Z,8.48
2019-05-07T06:05:35.457Z,8.68
2019-05-07T06:09:02.681Z,8.74
2019-05-07T06:12:32.833Z,8.77
2019-05-07T06:16:03.647Z,8.93
2019-05-07T06:19:38.816Z,8.88
2019-05-07T06:23:24.382Z,9.01
2019-05-07T06:26:52.148Z,9.15
2019-05-07T06:30:22.550Z,9.28
2019-05-07T06:33:47.864Z,9.46
2019-05-07T06:37:13.450Z,9.61
2019-05-07T06:40:51.785Z,9.74
2019-05-07T06:44:18.539Z,9.76
2019-05-07T06:47:44.146Z,9.78
2019-05-07T06:51:09.738Z,9.83
2019-05-07T06:54:35.324Z,9.99
2019-05-07T06:58:02.623Z,10.14
2019-05-07T07:01:45.618Z,10.48
2019-05-07T07:05:13.462Z,10.68
2019-05-07T07:08:55.827Z,10.84
2019-05-07T07:12:28.581Z,10.84
2019-05-07T07:15:54.972Z,10.87
2019-05-07T07:19:20.576Z,10.99
2019-05-07T07:22:46.193Z,11.08
2019-05-07T07:26:12.933Z,11.22
2019-05-07T07:29:44.967Z,11.47
2019-05-07T07:33:13.146Z,11.62
2019-05-07T07:37:05.051Z,11.49
2019-05-07T07:40:34.865Z,11.65
2019-05-07T07:44:02.090Z,11.78
2019-05-07T07:47:27.892Z,11.89
2019-05-07T07:50:53.482Z,11.93
2019-05-07T07:54:19.192Z,12.00
2019-05-07T07:57:46.428Z,12.19
2019-05-07T08:01:32.994Z,11.77
2019-05-07T08:04:58.775Z,11.80
2019-05-07T08:08:24.376Z,11.37
2019-05-07T08:11:49.977Z,11.31
2019-05-07T08:15:21.159Z,11.74
2019-05-07T08:18:45.668Z,11.87
2019-05-07T08:22:12.077Z,11.88
2019-05-07T08:25:52.220Z,11.91
2019-05-07T08:29:17.283Z,12.13
2019-05-07T08:32:44.522Z,12.16
2019-05-07T08:36:15.073Z,12.24
2019-05-07T08:39:42.744Z,12.32
2019-05-07T08:43:09.176Z,12.52
2019-05-07T08:46:36.410Z,12.60
2019-05-07T08:50:02.867Z,12.36
2019-05-07T08:53:28.717Z,12.22
2019-05-07T08:56:54.325Z,12.34
2019-05-07T09:00:22.381Z,12.67
2019-05-07T09:03:48.834Z,12.39
2019-05-07T09:07:14.421Z,12.28
2019-05-07T09:10:42.146Z,12.52
2019-05-07T09:14:07.872Z,12.83
2019-05-07T09:17:33.515Z,12.77
2019-05-07T09:20:59.414Z,13.06
2019-05-07T09:24:25.032Z,13.43
2019-05-07T09:27:52.475Z,14.01
2019-05-07T09:31:20.076Z,14.03
2019-05-07T09:34:47.649Z,13.79
2019-05-07T09:38:13.321Z,13.36
2019-05-07T09:41:38.912Z,12.80
2019-05-07T09:45:07.284Z,13.02
2019-05-07T09:48:33.822Z,13.18
2019-05-07T09:51:59.605Z,13.28
2019-05-07T09:55:25.201Z,13.28
2019-05-07T09:58:52.928Z,13.12
2019-05-07T10:02:19.226Z,13.23
2019-05-07T10:05:44.826Z,13.68
2019-05-07T10:09:12.068Z,13.88
2019-05-07T10:12:39.315Z,14.14
2019-05-07T10:16:07.695Z,13.99
2019-05-07T10:19:33.038Z,13.94
2019-05-07T10:22:58.996Z,14.36
2019-05-07T10:26:25.430Z,14.79
2019-05-07T10:29:54.215Z,14.53
2019-05-07T10:33:20.018Z,14.35
2019-05-07T10:36:45.710Z,14.19
2019-05-07T10:40:12.733Z,14.44
2019-05-07T10:43:39.018Z,14.17
2019-05-07T10:47:22.760Z,14.00
2019-05-07T10:50:52.674Z,14.05
2019-05-07T10:54:18.336Z,14.05
2019-05-07T10:57:44.315Z,14.36
2019-05-07T11:01:12.049Z,14.56
2019-05-07T11:04:42.114Z,14.91
2019-05-07T11:08:06.217Z,15.14
2019-05-07T11:11:31.995Z,15.20
2019-05-07T11:14:58.678Z,15.47
2019-05-07T11:18:24.116Z,15.69
2019-05-07T11:21:52.001Z,15.77
2019-05-07T11:25:17.330Z,15.79
2019-05-07T11:28:43.448Z,15.58
2019-05-07T11:32:09.005Z,15.58
2019-05-07T11:35:34.648Z,14.89
2019-05-07T11:39:02.185Z,14.86
2019-05-07T11:42:47.218Z,15.35
2019-05-07T11:46:14.448Z,15.70
2019-05-07T11:49:57.880Z,15.28
2019-05-07T11:53:25.357Z,15.54
2019-05-07T11:56:52.276Z,15.65
2019-05-07T12:00:21.933Z,15.91
2019-05-07T12:03:47.565Z,15.99
2019-05-07T12:07:13.184Z,16.04
2019-05-07T12:10:39.046Z,15.98
2019-05-07T12:14:05.246Z,16.01
2019-05-07T12:17:31.914Z,16.16
2019-05-07T12:20:57.556Z,16.29
2019-05-07T12:24:23.415Z,16.52
2019-05-07T12:27:52.733Z,16.59
2019-05-07T12:31:36.656Z,16.69
2019-05-07T12:35:03.908Z,16.60
2019-05-07T12:38:29.574Z,16.41
2019-05-07T12:41:55.230Z,16.40
2019-05-07T12:45:22.818Z,16.62
2019-05-07T12:48:48.563Z,16.63
2019-05-07T12:52:18.559Z,16.88
2019-05-07T12:55:48.655Z,17.23
2019-05-07T12:59:15.340Z,17.51
2019-05-07T13:02:45.516Z,17.62
2019-05-07T13:06:12.522Z,18.23
2019-05-07T13:09:38.381Z,18.82
2019-05-07T13:13:05.013Z,18.82
2019-05-07T13:16:32.363Z,18.90
2019-05-07T13:19:58.145Z,18.67
2019-05-07T13:23:23.813Z,17.91
2019-05-07T13:26:51.673Z,18.35
2019-05-07T13:30:18.091Z,19.29
2019-05-07T13:33:45.986Z,19.43
2019-05-07T13:37:14.664Z,19.11
2019-05-07T13:40:56.941Z,18.84
2019-05-07T13:44:24.350Z,19.00
2019-05-07T13:47:54.309Z,19.21
2019-05-07T13:51:21.693Z,19.85
2019-05-07T13:54:47.338Z,19.76
2019-05-07T13:58:14.326Z,19.42
2019-05-07T14:01:50.411Z,19.27
2019-05-07T14:05:17.174Z,19.28
2019-05-07T14:08:44.419Z,19.51
2019-05-07T14:12:12.348Z,19.91
2019-05-07T14:15:37.807Z,20.50
2019-05-07T14:19:04.308Z,24.30
2019-05-07T14:22:31.819Z,27.52
2019-05-07T14:25:57.608Z,29.01
2019-05-07T14:29:24.857Z,28.08
2019-05-07T14:33:09.465Z,25.68
2019-05-07T14:36:38.411Z,24.29
2019-05-07T14:40:07.732Z,22.92
2019-05-07T14:43:34.991Z,22.15
2019-05-07T14:47:02.388Z,21.60
2019-05-07T14:50:28.356Z,21.08
2019-05-07T14:53:54.116Z,20.99
2019-05-07T14:57:21.958Z,21.66
2019-05-07T15:00:47.013Z,21.59
2019-05-07T15:04:13.039Z,21.94
2019-05-07T15:07:39.478Z,24.41
2019-05-07T15:11:05.316Z,24.36
2019-05-07T15:14:31.864Z,23.31
2019-05-07T15:18:00.634Z,23.52
2019-05-07T15:21:27.096Z,25.21
2019-05-07T15:24:52.693Z,25.06
2019-05-07T15:28:19.857Z,25.17
2019-05-07T15:32:03.418Z,23.90
2019-05-07T15:35:29.247Z,22.44
2019-05-07T15:38:54.848Z,21.57
2019-05-07T15:42:22.216Z,22.84
2019-05-07T15:45:47.891Z,22.98
2019-05-07T15:49:13.535Z,23.23
2019-05-07T15:52:57.698Z,23.48
2019-05-07T15:56:14.207Z,24.96
2019-05-07T15:59:41.796Z,24.69
2019-05-07T16:03:14.962Z,23.48
2019-05-07T16:06:42.436Z,22.48
2019-05-07T16:10:08.601Z,22.06
2019-05-07T16:13:35.839Z,21.50
2019-05-07T16:17:03.126Z,20.95
2019-05-07T16:20:28.716Z,20.48
2019-05-07T16:23:55.717Z,20.00
2019-05-07T16:27:22.428Z,20.07
2019-05-07T16:30:48.118Z,20.32
2019-05-07T16:34:13.721Z,21.68
2019-05-07T16:37:39.480Z,22.35
2019-05-07T16:41:05.071Z,23.07
2019-05-07T16:44:32.992Z,23.34
2019-05-07T16:48:00.403Z,23.40
2019-05-07T16:51:26.254Z,22.71
2019-05-07T16:54:52.305Z,22.95
2019-05-07T16:58:23.614Z,23.31
2019-05-07T17:01:49.209Z,23.58
2019-05-07T17:05:16.997Z,23.11
2019-05-07T17:08:44.444Z,23.82
2019-05-07T17:12:11.693Z,24.17
2019-05-07T17:15:56.875Z,24.09
2019-05-07T17:19:22.572Z,23.66
2019-05-07T17:22:48.179Z,23.44
2019-05-07T17:26:14.057Z,22.62
2019-05-07T17:29:39.653Z,21.98
2019-05-07T17:33:07.315Z,21.08
2019-05-07T17:36:33.213Z,20.45
2019-05-07T17:39:58.892Z,20.92
2019-05-07T17:43:24.557Z,20.44
2019-05-07T17:46:51.869Z,19.95
2019-05-07T17:50:19.441Z,19.18
2019-05-07T17:53:56.728Z,18.71
2019-05-07T17:57:15.826Z,18.39
2019-05-07T18:00:42.293Z,18.21
2019-05-07T18:04:07.927Z,18.02
2019-05-07T18:07:33.551Z,17.67
2019-05-07T18:11:02.033Z,17.50
2019-05-07T18:14:27.148Z,17.16
2019-05-07T18:17:54.448Z,17.14
2019-05-07T18:21:22.019Z,16.94
2019-05-07T18:24:47.815Z,16.77
2019-05-07T18:28:16.180Z,16.49
2019-05-07T18:31:43.475Z,16.35
2019-05-07T18:35:09.415Z,16.23
2019-05-07T18:38:35.012Z,16.10
2019-05-07T18:42:02.759Z,15.91
2019-05-07T18:45:28.570Z,15.86
2019-05-07T18:48:54.907Z,15.74
2019-05-07T18:52:22.814Z,15.61
2019-05-07T18:55:48.299Z,15.51
2019-05-07T18:59:17.996Z,15.38
2019-05-07T19:02:42.726Z,15.33
2019-05-07T19:06:08.527Z,15.18
2019-05-07T19:09:34.157Z,14.68
2019-05-07T19:12:59.870Z,14.44
2019-05-07T19:16:25.562Z,14.28
2019-05-07T19:19:52.524Z,14.18
2019-05-07T19:23:18.238Z,14.01
2019-05-07T19:26:43.847Z,13.74
2019-05-07T19:30:12.558Z,13.45
2019-05-07T19:33:38.294Z,13.46
2019-05-07T19:37:03.899Z,13.63
2019-05-07T19:40:29.566Z,13.73
2019-05-07T19:43:55.235Z,13.84
2019-05-07T19:47:23.084Z,13.80
2019-05-07T19:50:48.279Z,13.69
2019-05-07T19:54:13.874Z,13.66
2019-05-07T19:57:42.638Z,13.57
2019-05-07T20:01:11.982Z,13.45
2019-05-07T20:04:37.131Z,13.38
2019-05-07T20:08:04.722Z,13.24
2019-05-07T20:11:31.977Z,13.33
2019-05-07T20:14:57.568Z,13.38
2019-05-07T20:18:23.231Z,13.27
2019-05-07T20:21:48.826Z,13.16
2019-05-07T20:25:18.913Z,13.02
2019-05-07T20:28:42.343Z,13.09
2019-05-07T20:32:08.653Z,13.00
2019-05-07T20:35:37.328Z,12.80
2019-05-07T20:39:02.378Z,12.68
2019-05-07T20:42:29.683Z,12.62
2019-05-07T20:45:55.405Z,12.57
2019-05-07T20:49:22.536Z,12.57
2019-05-07T20:52:48.296Z,12.47
2019-05-07T20:56:15.352Z,12.35
2019-05-07T20:59:41.631Z,12.23
2019-05-07T21:03:23.911Z,11.94
2019-05-07T21:06:52.452Z,11.81
2019-05-07T21:10:17.839Z,11.79
2019-05-07T21:13:44.644Z,11.73
2019-05-07T21:17:11.915Z,11.71
2019-05-07T21:20:37.803Z,11.67
2019-05-07T21:24:03.613Z,11.57
2019-05-07T21:27:29.224Z,11.46
2019-05-07T21:30:54.844Z,11.35
2019-05-07T21:34:22.820Z,11.26
2019-05-07T21:37:47.763Z,11.12
2019-05-07T21:41:13.385Z,11.09
2019-05-07T21:44:38.983Z,11.00
2019-05-07T21:48:04.663Z,10.89
2019-05-07T21:51:30.264Z,10.79
2019-05-07T21:54:57.601Z,10.73
2019-05-07T21:58:27.606Z,10.67
2019-05-07T22:01:54.854Z,10.63
2019-05-07T22:05:22.520Z,10.61
2019-05-07T22:08:48.171Z,10.50
2019-05-07T22:12:13.781Z,10.51
2019-05-07T22:15:39.581Z,10.50
2019-05-07T22:19:05.410Z,10.57
2019-05-07T22:22:32.046Z,10.41
2019-05-07T22:25:58.025Z,10.26
2019-05-07T22:29:25.258Z,10.19
2019-05-07T22:32:58.206Z,10.12
2019-05-07T22:36:23.813Z,10.05
2019-05-07T22:39:54.257Z,10.01
2019-05-07T22:43:22.602Z,9.98
2019-05-07T22:46:48.449Z,9.86
2019-05-07T22:50:14.113Z,9.83
2019-05-07T22:53:39.704Z,9.84
2019-05-07T22:57:06.934Z,9.85
2019-05-07T23:00:34.167Z,9.81
2019-05-07T23:04:00.056Z,9.74
2019-05-07T23:07:25.666Z,9.76
2019-05-07T23:10:52.593Z,9.78
2019-05-07T23:14:18.358Z,9.63
2019-05-07T23:17:43.965Z,9.68
2019-05-07T23:21:09.567Z,9.71
2019-05-07T23:24:35.161Z,9.69
2019-05-07T23:28:04.897Z,9.67
2019-05-07T23:31:28.045Z,9.67
2019-05-07T23:34:53.659Z,9.64
2019-05-07T23:38:19.366Z,9.62
2019-05-07T23:41:46.612Z,9.54
2019-05-07T23:45:12.628Z,9.54
2019-05-07T23:48:38.237Z,9.52
2019-05-07T23:52:03.819Z,9.48
2019-05-07T23:55:31.700Z,9.48
2019-05-07T23:58:56.738Z,9.43
